createdAt,value
2023-04-02T00:00:12.697Z,8.83
2023-04-02T00:03:09.986Z,8.81
2023-04-02T00:05:57.838Z,8.72
2023-04-02T00:08:45.593Z,8.53
2023-04-02T00:11:38.730Z,8.70
2023-04-02T00:14:32.173Z,8.58
2023-04-02T00:17:22.839Z,8.53
2023-04-02T00:20:19.059Z,8.57
2023-04-02T00:23:07.416Z,8.61
2023-04-02T00:25:55.204Z,8.55
2023-04-02T00:28:42.859Z,8.48
2023-04-02T00:31:31.970Z,8.38
2023-04-02T00:34:30.954Z,8.60
2023-04-02T00:37:27.806Z,8.67
2023-04-02T00:40:30.914Z,8.57
2023-04-02T00:43:21.169Z,8.61
2023-04-02T00:46:14.966Z,8.62
2023-04-02T00:49:10.850Z,8.65
2023-04-02T00:52:03.615Z,8.82
2023-04-02T00:55:01.292Z,8.86
2023-04-02T00:57:50.621Z,8.75
2023-04-02T01:00:38.388Z,8.82
2023-04-02T01:03:37.023Z,8.83
2023-04-02T01:06:31.287Z,8.83
2023-04-02T01:09:36.659Z,8.85
2023-04-02T01:12:42.518Z,8.79
2023-04-02T01:15:38.731Z,8.76
2023-04-02T01:18:46.690Z,9.06
2023-04-02T01:21:46.233Z,9.08
2023-04-02T01:24:37.486Z,8.85
2023-04-02T01:27:35.225Z,8.93
2023-04-02T01:30:29.489Z,9.07
2023-04-02T01:33:18.457Z,9.21
2023-04-02T01:36:11.870Z,8.98
2023-04-02T01:39:02.998Z,9.15
2023-04-02T01:41:58.202Z,9.20
2023-04-02T01:44:52.381Z,9.05
2023-04-02T01:47:40.914Z,9.32
2023-04-02T01:50:33.822Z,9.29
2023-04-02T01:53:24.779Z,9.38
2023-04-02T01:56:12.622Z,9.38
2023-04-02T01:59:02.912Z,9.22
2023-04-02T02:02:01.731Z,9.26
2023-04-02T02:04:50.737Z,9.57
2023-04-02T02:07:38.544Z,9.64
2023-04-02T02:10:39.367Z,9.65
2023-04-02T02:13:27.591Z,9.63
2023-04-02T02:16:18.328Z,9.70
2023-04-02T02:19:06.282Z,9.47
2023-04-02T02:21:57.314Z,9.58
2023-04-02T02:24:45.652Z,9.70
2023-04-02T02:27:45.601Z,9.77
2023-04-02T02:30:46.267Z,9.70
2023-04-02T02:33:41.955Z,9.78
2023-04-02T02:37:04.779Z,9.87
2023-04-02T02:39:57.682Z,9.74
2023-04-02T02:42:54.126Z,9.85
2023-04-02T02:45:43.937Z,9.80
2023-04-02T02:48:38.635Z,9.88
2023-04-02T02:51:40.674Z,9.83
2023-04-02T02:54:32.777Z,9.62
2023-04-02T02:57:28.947Z,9.77
2023-04-02T03:00:19.733Z,9.77
2023-04-02T03:03:13.118Z,9.53
2023-04-02T03:06:08.658Z,9.69
2023-04-02T03:09:33.591Z,9.66
2023-04-02T03:12:24.223Z,9.66
2023-04-02T03:16:03.418Z,9.73
2023-04-02T03:19:08.499Z,9.74
2023-04-02T03:22:06.086Z,9.66
2023-04-02T03:25:06.368Z,9.62
2023-04-02T03:28:02.735Z,9.54
2023-04-02T03:31:03.873Z,9.74
2023-04-02T03:34:02.438Z,9.56
2023-04-02T03:37:11.358Z,9.42
2023-04-02T03:40:16.010Z,9.27
2023-04-02T03:43:26.819Z,9.35
2023-04-02T03:46:28.632Z,9.18
2023-04-02T03:49:31.598Z,9.20
2023-04-02T03:52:29.897Z,9.00
2023-04-02T03:55:29.139Z,9.07
2023-04-02T03:58:29.184Z,8.97
2023-04-02T04:01:27.634Z,8.82
2023-04-02T04:04:19.755Z,8.67
2023-04-02T04:07:19.352Z,8.52
2023-04-02T04:10:08.997Z,8.21
2023-04-02T04:13:04.273Z,8.46
2023-04-02T04:16:03.058Z,8.28
2023-04-02T04:19:03.822Z,8.17
2023-04-02T04:21:57.278Z,7.98
2023-04-02T04:24:48.539Z,8.00
2023-04-02T04:27:58.568Z,7.97
2023-04-02T04:31:10.817Z,7.75
2023-04-02T04:34:04.237Z,7.91
2023-04-02T04:37:02.370Z,7.80
2023-04-02T04:40:12.118Z,7.78
2023-04-02T04:43:06.294Z,7.68
2023-04-02T04:46:12.874Z,7.57
2023-04-02T04:49:12.689Z,7.51
2023-04-02T04:52:34.965Z,7.63
2023-04-02T04:55:56.983Z,7.59
2023-04-02T04:58:59.375Z,7.93
2023-04-02T05:02:16.432Z,8.78
2023-04-02T05:05:18.256Z,9.20
2023-04-02T05:08:28.248Z,9.79
2023-04-02T05:11:37.394Z,9.91
2023-04-02T05:14:52.440Z,10.41
2023-04-02T05:18:28.092Z,10.73
2023-04-02T05:21:40.894Z,10.96
2023-04-02T05:24:48.288Z,11.48
2023-04-02T05:27:55.320Z,11.29
2023-04-02T05:31:03.687Z,11.61
2023-04-02T05:33:54.848Z,12.08
2023-04-02T05:36:47.026Z,12.13
2023-04-02T05:39:35.558Z,12.37
2023-04-02T05:42:27.532Z,12.83
2023-04-02T05:45:41.462Z,13.52
2023-04-02T05:48:39.453Z,13.69
2023-04-02T05:51:58.375Z,14.20
2023-04-02T05:55:12.542Z,14.14
2023-04-02T05:58:34.703Z,14.01
2023-04-02T06:01:45.899Z,14.45
2023-04-02T06:05:03.334Z,14.38
2023-04-02T06:08:38.826Z,14.73
2023-04-02T06:11:33.440Z,14.63
2023-04-02T06:14:22.810Z,14.67
2023-04-02T06:17:19.405Z,14.29
2023-04-02T06:20:10.108Z,14.58
2023-04-02T06:23:09.998Z,14.48
2023-04-02T06:26:33.619Z,13.98
2023-04-02T06:29:29.092Z,14.70
2023-04-02T06:32:17.458Z,14.66
2023-04-02T06:35:06.305Z,14.41
2023-04-02T06:38:02.325Z,14.85
2023-04-02T06:41:00.221Z,14.91
2023-04-02T06:44:15.158Z,15.08
2023-04-02T06:47:29.181Z,15.13
2023-04-02T06:50:28.103Z,15.30
2023-04-02T06:53:33.245Z,15.17
2023-04-02T06:56:43.987Z,15.48
2023-04-02T06:59:35.534Z,16.06
2023-04-02T07:02:38.312Z,15.98
2023-04-02T07:05:28.322Z,15.80
2023-04-02T07:08:19.605Z,15.86
2023-04-02T07:11:07.430Z,16.04
2023-04-02T07:13:55.159Z,16.06
2023-04-02T07:16:44.444Z,16.01
2023-04-02T07:19:32.604Z,16.35
2023-04-02T07:22:21.070Z,16.74
2023-04-02T07:25:13.902Z,16.60
2023-04-02T07:28:01.879Z,16.85
2023-04-02T07:30:51.122Z,17.05
2023-04-02T07:33:39.762Z,17.16
2023-04-02T07:36:30.955Z,17.03
2023-04-02T07:39:18.604Z,16.74
2023-04-02T07:42:06.656Z,17.08
2023-04-02T07:44:54.354Z,17.47
2023-04-02T07:47:42.754Z,17.12
2023-04-02T07:50:30.911Z,17.49
2023-04-02T07:53:40.630Z,17.66
2023-04-02T07:56:28.934Z,17.76
2023-04-02T07:59:16.649Z,17.84
2023-04-02T08:02:04.705Z,17.57
2023-04-02T08:04:52.433Z,17.79
2023-04-02T08:07:40.113Z,17.77
2023-04-02T08:10:27.756Z,18.09
2023-04-02T08:13:17.610Z,18.38
2023-04-02T08:16:07.145Z,18.28
2023-04-02T08:18:54.830Z,18.27
2023-04-02T08:21:43.123Z,18.68
2023-04-02T08:24:33.893Z,18.40
2023-04-02T08:27:22.128Z,17.91
2023-04-02T08:30:18.284Z,18.34
2023-04-02T08:33:06.804Z,18.78
2023-04-02T08:35:54.567Z,18.84
2023-04-02T08:38:45.782Z,18.77
2023-04-02T08:41:47.628Z,18.82
2023-04-02T08:44:38.264Z,19.23
2023-04-02T08:47:30.198Z,19.33
2023-04-02T08:50:33.444Z,19.04
2023-04-02T08:53:31.507Z,18.90
2023-04-02T08:56:39.623Z,19.07
2023-04-02T08:59:38.649Z,19.59
2023-04-02T09:02:38.077Z,19.92
2023-04-02T09:05:34.951Z,19.98
2023-04-02T09:08:25.837Z,19.31
2023-04-02T09:11:36.218Z,19.04
2023-04-02T09:14:39.498Z,19.18
2023-04-02T09:17:28.062Z,19.67
2023-04-02T09:20:19.560Z,19.49
2023-04-02T09:23:17.124Z,19.29
2023-04-02T09:26:25.237Z,18.99
2023-04-02T09:29:14.635Z,19.63
2023-04-02T09:32:11.335Z,19.51
2023-04-02T09:35:24.830Z,19.49
2023-04-02T09:38:33.254Z,20.15
2023-04-02T09:41:21.426Z,20.17
2023-04-02T09:44:27.351Z,20.35
2023-04-02T09:47:26.781Z,20.68
2023-04-02T09:50:31.168Z,20.80
2023-04-02T09:53:46.348Z,19.87
2023-04-02T09:56:35.786Z,19.76
2023-04-02T09:59:23.576Z,19.38
2023-04-02T10:02:32.412Z,18.93
2023-04-02T10:05:36.860Z,19.34
2023-04-02T10:08:28.377Z,19.74
2023-04-02T10:11:36.403Z,19.64
2023-04-02T10:14:40.981Z,19.64
2023-04-02T10:17:33.053Z,20.06
2023-04-02T10:20:26.022Z,19.29
2023-04-02T10:23:18.092Z,19.35
2023-04-02T10:26:17.738Z,19.39
2023-04-02T10:29:26.326Z,19.26
2023-04-02T10:32:23.511Z,18.41
2023-04-02T10:35:14.395Z,18.54
2023-04-02T10:38:26.991Z,18.67
2023-04-02T10:41:22.473Z,19.80
2023-04-02T10:44:37.516Z,19.51
2023-04-02T10:47:38.504Z,20.03
2023-04-02T10:50:29.805Z,19.63
2023-04-02T10:53:21.577Z,19.63
2023-04-02T10:56:12.638Z,20.16
2023-04-02T10:59:23.616Z,19.99
2023-04-02T11:02:39.507Z,19.98
2023-04-02T11:05:41.086Z,20.82
2023-04-02T11:08:47.771Z,20.13
2023-04-02T11:11:40.518Z,20.07
2023-04-02T11:14:32.813Z,20.18
2023-04-02T11:17:21.285Z,20.33
2023-04-02T11:20:44.470Z,20.34
2023-04-02T11:23:57.518Z,21.07
2023-04-02T11:26:47.637Z,20.58
2023-04-02T11:29:47.226Z,20.39
2023-04-02T11:32:43.742Z,19.91
2023-04-02T11:35:31.576Z,19.84
2023-04-02T11:38:24.441Z,19.89
2023-04-02T11:41:12.243Z,19.68
2023-04-02T11:44:02.808Z,20.31
2023-04-02T11:46:51.861Z,20.56
2023-04-02T11:49:56.820Z,20.62
2023-04-02T11:52:47.672Z,20.84
2023-04-02T11:55:36.796Z,20.29
2023-04-02T11:58:54.429Z,19.79
2023-04-02T12:02:13.970Z,19.25
2023-04-02T12:05:07.998Z,19.28
2023-04-02T12:08:12.803Z,19.11
2023-04-02T12:11:02.639Z,19.06
2023-04-02T12:13:53.300Z,19.03
2023-04-02T12:16:44.428Z,19.32
2023-04-02T12:19:32.408Z,19.03
2023-04-02T12:22:29.313Z,18.70
2023-04-02T12:25:40.326Z,19.23
2023-04-02T12:28:30.335Z,19.46
2023-04-02T12:31:25.412Z,19.72
2023-04-02T12:34:18.497Z,19.54
2023-04-02T12:37:21.287Z,19.55
2023-04-02T12:40:18.942Z,19.74
2023-04-02T12:43:34.941Z,19.64
2023-04-02T12:46:24.646Z,19.84
2023-04-02T12:49:35.978Z,20.08
2023-04-02T12:52:28.865Z,20.20
2023-04-02T12:55:27.529Z,20.03
2023-04-02T12:58:56.917Z,20.08
2023-04-02T13:01:58.340Z,20.35
2023-04-02T13:05:12.622Z,20.55
2023-04-02T13:08:00.725Z,20.01
2023-04-02T13:10:55.985Z,20.07
2023-04-02T13:13:46.180Z,20.23
2023-04-02T13:16:37.869Z,20.37
2023-04-02T13:19:32.797Z,20.64
2023-04-02T13:22:32.558Z,20.41
2023-04-02T13:25:28.273Z,20.18
2023-04-02T13:28:16.098Z,19.98
2023-04-02T13:31:04.004Z,20.48
2023-04-02T13:33:52.331Z,20.54
2023-04-02T13:36:40.051Z,20.49
2023-04-02T13:39:27.930Z,20.39
2023-04-02T13:42:18.171Z,20.49
2023-04-02T13:45:22.798Z,20.21
2023-04-02T13:48:14.999Z,20.21
2023-04-02T13:51:02.684Z,20.26
2023-04-02T13:53:57.295Z,20.37
2023-04-02T13:56:45.294Z,19.95
2023-04-02T13:59:33.094Z,19.99
2023-04-02T14:02:24.997Z,19.83
2023-04-02T14:05:38.481Z,20.01
2023-04-02T14:09:08.084Z,19.56
2023-04-02T14:12:08.790Z,19.45
2023-04-02T14:15:15.186Z,19.73
2023-04-02T14:18:24.473Z,19.46
2023-04-02T14:21:42.421Z,19.48
2023-04-02T14:24:51.674Z,19.44
2023-04-02T14:28:10.737Z,19.56
2023-04-02T14:31:11.599Z,19.54
2023-04-02T14:34:20.822Z,19.41
2023-04-02T14:37:37.368Z,19.18
2023-04-02T14:40:46.716Z,19.30
2023-04-02T14:44:03.525Z,19.02
2023-04-02T14:47:02.305Z,19.25
2023-04-02T14:49:59.050Z,19.14
2023-04-02T14:52:52.752Z,18.84
2023-04-02T14:55:47.051Z,18.64
2023-04-02T14:58:41.695Z,18.67
2023-04-02T15:01:37.000Z,18.52
2023-04-02T15:04:51.450Z,18.50
2023-04-02T15:07:45.627Z,18.56
2023-04-02T15:10:41.926Z,18.29
2023-04-02T15:13:46.201Z,18.29
2023-04-02T15:16:36.715Z,17.97
2023-04-02T15:19:24.540Z,18.05
2023-04-02T15:22:45.457Z,18.01
2023-04-02T15:25:45.768Z,17.67
2023-04-02T15:28:46.489Z,17.64
2023-04-02T15:31:35.716Z,17.81
2023-04-02T15:34:54.958Z,17.50
2023-04-02T15:37:57.937Z,17.34
2023-04-02T15:41:16.314Z,17.49
2023-04-02T15:44:03.790Z,17.47
2023-04-02T15:47:19.469Z,17.45
2023-04-02T15:50:28.143Z,17.35
2023-04-02T15:53:34.812Z,17.13
2023-04-02T15:56:51.244Z,17.12
2023-04-02T15:59:51.259Z,17.08
2023-04-02T16:03:06.867Z,16.87
2023-04-02T16:06:17.546Z,16.66
2023-04-02T16:09:08.622Z,16.37
2023-04-02T16:12:02.536Z,16.28
2023-04-02T16:14:50.642Z,16.08
2023-04-02T16:17:45.992Z,15.99
2023-04-02T16:20:42.785Z,15.92
2023-04-02T16:23:41.097Z,15.77
2023-04-02T16:26:50.890Z,15.68
2023-04-02T16:30:08.677Z,15.45
2023-04-02T16:33:24.067Z,15.56
2023-04-02T16:36:21.678Z,15.46
2023-04-02T16:39:17.327Z,15.30
2023-04-02T16:42:44.841Z,15.27
2023-04-02T16:45:50.574Z,15.15
2023-04-02T16:49:13.918Z,14.92
2023-04-02T16:52:16.114Z,14.67
2023-04-02T16:55:07.175Z,14.53
2023-04-02T16:58:31.649Z,14.45
2023-04-02T17:01:48.770Z,14.28
2023-04-02T17:05:04.506Z,14.15
2023-04-02T17:08:12.305Z,14.03
2023-04-02T17:11:08.523Z,13.84
2023-04-02T17:14:06.535Z,13.76
2023-04-02T17:17:02.788Z,13.61
2023-04-02T17:19:58.316Z,13.41
2023-04-02T17:22:47.729Z,13.35
2023-04-02T17:25:39.274Z,13.38
2023-04-02T17:28:37.227Z,13.10
2023-04-02T17:31:28.832Z,13.03
2023-04-02T17:34:19.156Z,12.88
2023-04-02T17:37:40.663Z,12.82
2023-04-02T17:40:59.371Z,12.75
2023-04-02T17:44:10.966Z,12.83
2023-04-02T17:47:27.805Z,12.59
2023-04-02T17:50:52.508Z,12.49
2023-04-02T17:53:51.294Z,12.31
2023-04-02T17:56:44.931Z,12.12
2023-04-02T17:59:58.430Z,12.10
2023-04-02T18:03:13.462Z,12.11
2023-04-02T18:06:08.938Z,11.76
2023-04-02T18:09:03.329Z,11.75
2023-04-02T18:12:01.164Z,11.65
2023-04-02T18:15:20.219Z,11.73
2023-04-02T18:18:20.060Z,11.53
2023-04-02T18:21:07.762Z,11.54
2023-04-02T18:24:01.673Z,11.19
2023-04-02T18:27:07.553Z,11.21
2023-04-02T18:30:19.564Z,11.21
2023-04-02T18:33:36.353Z,11.02
2023-04-02T18:36:41.149Z,10.79
2023-04-02T18:40:00.185Z,10.74
2023-04-02T18:43:03.715Z,10.74
2023-04-02T18:46:05.471Z,10.50
2023-04-02T18:49:06.456Z,10.63
2023-04-02T18:52:03.842Z,9.92
2023-04-02T18:54:55.566Z,10.44
2023-04-02T18:57:45.632Z,10.32
2023-04-02T19:00:38.355Z,10.11
2023-04-02T19:03:55.231Z,10.09
2023-04-02T19:06:47.792Z,9.96
2023-04-02T19:09:39.304Z,9.66
2023-04-02T19:12:28.498Z,9.53
2023-04-02T19:15:20.574Z,9.44
2023-04-02T19:18:16.781Z,9.36
2023-04-02T19:21:26.311Z,9.22
2023-04-02T19:24:43.943Z,9.19
2023-04-02T19:27:44.865Z,9.26
2023-04-02T19:30:32.822Z,9.20
2023-04-02T19:33:42.618Z,9.12
2023-04-02T19:36:39.285Z,9.05
2023-04-02T19:39:38.876Z,8.99
2023-04-02T19:42:41.680Z,8.72
2023-04-02T19:45:39.795Z,8.89
2023-04-02T19:48:39.265Z,8.74
2023-04-02T19:51:27.424Z,8.81
2023-04-02T19:54:15.789Z,8.74
2023-04-02T19:57:05.267Z,8.71
2023-04-02T19:59:54.878Z,8.72
2023-04-02T20:02:42.739Z,8.59
2023-04-02T20:05:30.710Z,8.69
2023-04-02T20:08:18.611Z,8.48
2023-04-02T20:11:07.058Z,8.63
2023-04-02T20:13:55.211Z,8.63
2023-04-02T20:16:44.633Z,8.53
2023-04-02T20:19:33.554Z,8.33
2023-04-02T20:22:21.169Z,8.46
2023-04-02T20:25:09.027Z,8.41
2023-04-02T20:27:57.017Z,8.40
2023-04-02T20:30:44.738Z,8.43
2023-04-02T20:33:32.826Z,8.52
2023-04-02T20:36:20.541Z,8.47
2023-04-02T20:39:09.358Z,9.02
2023-04-02T20:42:01.324Z,8.82
2023-04-02T20:44:49.098Z,8.81
2023-04-02T20:47:36.859Z,8.79
2023-04-02T20:50:24.726Z,8.56
2023-04-02T20:53:12.412Z,8.83
2023-04-02T20:56:08.515Z,8.74
2023-04-02T20:58:56.503Z,8.73
2023-04-02T21:01:44.337Z,8.51
2023-04-02T21:04:32.194Z,8.49
2023-04-02T21:07:19.995Z,8.47
2023-04-02T21:10:07.831Z,8.31
2023-04-02T21:12:55.542Z,8.22
2023-04-02T21:15:43.607Z,8.12
2023-04-02T21:18:32.535Z,8.09
2023-04-02T21:21:21.418Z,8.01
2023-04-02T21:24:09.653Z,7.92
2023-04-02T21:26:57.431Z,7.84
2023-04-02T21:29:45.155Z,7.48
2023-04-02T21:32:33.488Z,7.66
2023-04-02T21:35:22.139Z,7.63
2023-04-02T21:38:09.782Z,7.71
2023-04-02T21:40:57.495Z,7.46
2023-04-02T21:43:48.822Z,7.66
2023-04-02T21:46:42.596Z,7.46
2023-04-02T21:49:30.795Z,7.56
2023-04-02T21:52:18.531Z,7.61
2023-04-02T21:55:06.538Z,7.70
2023-04-02T21:57:54.213Z,7.48
2023-04-02T22:00:41.966Z,7.56
2023-04-02T22:03:31.882Z,7.45
2023-04-02T22:06:21.640Z,7.24
2023-04-02T22:09:12.753Z,7.37
2023-04-02T22:12:00.528Z,7.81
2023-04-02T22:14:48.277Z,7.61
2023-04-02T22:17:36.050Z,7.89
2023-04-02T22:20:23.781Z,7.65
2023-04-02T22:23:11.475Z,7.88
2023-04-02T22:26:00.131Z,7.78
2023-04-02T22:28:47.991Z,7.73
2023-04-02T22:31:35.955Z,7.66
2023-04-02T22:34:23.800Z,7.71
2023-04-02T22:37:12.158Z,7.62
2023-04-02T22:40:00.671Z,7.65
2023-04-02T22:42:49.031Z,7.54
2023-04-02T22:45:36.714Z,7.27
2023-04-02T22:48:24.397Z,7.17
2023-04-02T22:51:13.901Z,7.34
2023-04-02T22:54:01.509Z,7.27
2023-04-02T22:56:51.426Z,7.28
2023-04-02T22:59:43.756Z,7.21
2023-04-02T23:02:31.665Z,7.22
2023-04-02T23:05:19.441Z,7.11
2023-04-02T23:08:07.284Z,6.88
2023-04-02T23:11:22.846Z,6.97
2023-04-02T23:14:10.770Z,6.89
2023-04-02T23:16:58.483Z,6.76
2023-04-02T23:19:51.423Z,6.93
2023-04-02T23:22:39.446Z,6.87
2023-04-02T23:25:27.117Z,7.01
2023-04-02T23:28:14.869Z,7.45
2023-04-02T23:31:04.207Z,7.46
2023-04-02T23:33:52.666Z,7.36
2023-04-02T23:36:41.194Z,7.29
2023-04-02T23:39:28.925Z,7.34
2023-04-02T23:42:16.612Z,7.30
2023-04-02T23:45:04.716Z,7.30
2023-04-02T23:47:52.466Z,6.94
2023-04-02T23:50:40.136Z,7.14
2023-04-02T23:53:27.763Z,7.06
2023-04-02T23:56:15.870Z,6.77
2023-04-02T23:59:04.093Z,7.00
